Time;durP1;ratioP1;P1;durP2;ratioP2;P2;SDS_P1;SDS_P2;PMS_P1;PMS_P2;Temp;Humidity;BMP_temperature;BMP_pressure;BME280_temperature;BME280_humidity;BME280_pressure;Samples;Min_cycle;Max_cycle;Signal;HPM_P1;HPM_P2
2023/09/02 00:00:25;;;;;;;4.32;3.85;;;11.30;99.90;;;;;;4988067;28;20054;-88
2023/09/02 00:02:50;;;;;;;4.32;3.90;;;11.30;99.90;;;;;;4997536;28;20022;-88
2023/09/02 00:05:16;;;;;;;4.88;4.45;;;11.30;99.90;;;;;;4984795;28;20026;-89
2023/09/02 00:07:41;;;;;;;4.97;3.70;;;11.30;99.90;;;;;;5001686;28;20401;-88
2023/09/02 00:10:08;;;;;;;4.68;3.88;;;11.20;99.90;;;;;;5000524;28;20766;-89
2023/09/02 00:12:34;;;;;;;3.78;3.38;;;11.20;99.90;;;;;;5001405;28;20037;-88
2023/09/02 00:14:59;;;;;;;3.67;3.05;;;11.20;99.90;;;;;;4997682;28;20022;-88
2023/09/02 00:17:25;;;;;;;4.90;3.20;;;11.20;99.90;;;;;;4998388;28;20421;-88
2023/09/02 00:19:51;;;;;;;3.58;3.25;;;11.10;99.90;;;;;;5008335;28;20022;-88
2023/09/02 00:22:16;;;;;;;6.05;3.67;;;11.10;99.90;;;;;;5000843;28;20444;-88
2023/09/02 00:24:43;;;;;;;3.90;3.45;;;11.10;99.90;;;;;;5007270;28;20033;-88
2023/09/02 00:27:09;;;;;;;4.50;3.58;;;11.10;99.90;;;;;;4999599;28;20022;-88
2023/09/02 00:29:34;;;;;;;4.43;3.33;;;11.00;99.90;;;;;;4992964;28;20038;-88
2023/09/02 00:32:00;;;;;;;3.42;3.13;;;11.00;99.90;;;;;;5001047;28;20038;-88
2023/09/02 00:34:26;;;;;;;3.78;3.40;;;11.00;99.90;;;;;;4996463;28;20033;-88
2023/09/02 00:36:52;;;;;;;3.38;3.08;;;10.90;99.90;;;;;;5002897;28;20022;-88
2023/09/02 00:39:18;;;;;;;3.53;3.22;;;10.90;99.90;;;;;;4999592;28;20592;-88
2023/09/02 00:41:48;;;;;;;4.20;3.67;;;10.90;99.90;;;;;;4997609;28;20085;-88
2023/09/02 00:44:14;;;;;;;5.05;3.38;;;10.90;99.90;;;;;;4994600;28;20113;-88
2023/09/02 00:46:39;;;;;;;4.65;3.40;;;10.90;99.90;;;;;;4996448;28;20088;-88
2023/09/02 00:49:05;;;;;;;4.35;3.42;;;10.90;99.90;;;;;;4983867;28;20034;-89
2023/09/02 00:51:31;;;;;;;3.55;3.25;;;10.80;99.90;;;;;;4988508;28;20062;-88
2023/09/02 00:53:56;;;;;;;5.18;3.88;;;10.90;99.90;;;;;;5002167;28;20026;-88
2023/09/02 00:56:24;;;;;;;4.50;3.75;;;10.90;99.90;;;;;;4995755;28;20057;-88
2023/09/02 00:58:50;;;;;;;5.10;3.38;;;10.80;99.90;;;;;;4989046;28;20014;-88
2023/09/02 01:01:17;;;;;;;5.75;3.75;;;10.80;99.90;;;;;;4996244;28;20116;-88
2023/09/02 01:03:43;;;;;;;4.60;4.18;;;10.80;99.90;;;;;;4995290;28;20030;-88
2023/09/02 01:06:09;;;;;;;5.03;4.07;;;10.80;99.90;;;;;;4990226;28;20053;-88
2023/09/02 01:08:36;;;;;;;4.80;3.95;;;10.80;99.90;;;;;;5000476;28;20029;-88
2023/09/02 01:11:01;;;;;;;5.20;3.78;;;10.70;99.90;;;;;;5004862;28;20034;-88
2023/09/02 01:13:28;;;;;;;4.20;3.80;;;10.70;99.90;;;;;;4988743;28;20034;-88
2023/09/02 01:15:54;;;;;;;3.97;3.40;;;10.70;99.90;;;;;;5005751;28;20018;-88
2023/09/02 01:18:24;;;;;;;4.78;3.88;;;10.70;99.90;;;;;;5000049;28;20088;-88
2023/09/02 01:21:23;;;;;;;4.55;3.67;;;10.70;99.90;;;;;;4990928;28;20104;-88
2023/09/02 01:23:55;;;;;;;5.55;4.70;;;10.70;99.90;;;;;;4999379;28;20604;-88
2023/09/02 01:26:42;;;;;;;5.35;4.50;;;10.70;99.90;;;;;;5005121;28;20105;-88
2023/09/02 01:29:12;;;;;;;5.75;4.80;;;10.70;99.90;;;;;;4993498;28;20140;-88
2023/09/02 01:31:39;;;;;;;5.72;4.43;;;10.70;99.90;;;;;;5002536;28;20457;-87
2023/09/02 01:34:07;;;;;;;5.30;4.53;;;10.70;99.90;;;;;;4993461;28;20080;-88
2023/09/02 01:36:34;;;;;;;5.75;4.32;;;10.60;99.90;;;;;;4996189;28;20019;-88
2023/09/02 01:39:01;;;;;;;5.20;4.63;;;10.60;99.90;;;;;;4997219;28;20446;-87
2023/09/02 01:41:28;;;;;;;7.05;5.28;;;10.60;99.90;;;;;;5001006;28;20026;-87
2023/09/02 01:43:55;;;;;;;8.48;5.60;;;10.50;99.90;;;;;;5001076;28;20033;-88
2023/09/02 01:46:21;;;;;;;6.78;5.30;;;10.50;99.90;;;;;;5003129;28;20370;-88
2023/09/02 01:48:47;;;;;;;6.68;5.60;;;10.50;99.90;;;;;;5001498;28;20611;-88
2023/09/02 01:51:14;;;;;;;7.85;5.63;;;10.50;99.90;;;;;;5003963;28;20113;-87
2023/09/02 01:53:42;;;;;;;7.15;5.80;;;10.40;99.90;;;;;;5000192;28;20247;-87
2023/09/02 01:56:08;;;;;;;6.55;5.63;;;10.50;99.90;;;;;;4998366;28;20032;-87
2023/09/02 01:58:33;;;;;;;6.55;5.25;;;10.40;99.90;;;;;;5000891;28;20409;-87
2023/09/02 02:00:59;;;;;;;6.15;5.30;;;10.40;99.90;;;;;;5001824;28;20045;-87
2023/09/02 02:03:29;;;;;;;7.13;5.60;;;10.40;99.90;;;;;;4994903;28;20027;-88
2023/09/02 02:05:58;;;;;;;7.70;5.97;;;10.40;99.90;;;;;;4996013;28;20038;-88
2023/09/02 02:08:31;;;;;;;7.38;6.35;;;10.30;99.90;;;;;;4997679;28;20026;-87
2023/09/02 02:11:01;;;;;;;7.38;5.85;;;10.30;99.90;;;;;;4986431;28;20504;-88
2023/09/02 02:13:27;;;;;;;7.82;6.45;;;10.30;99.90;;;;;;4996357;28;20052;-87
2023/09/02 02:15:52;;;;;;;9.00;5.90;;;10.30;99.90;;;;;;5000824;28;20432;-87
2023/09/02 02:18:18;;;;;;;7.15;5.50;;;10.30;99.90;;;;;;5001433;28;20385;-87
2023/09/02 02:21:03;;;;;;;8.75;6.35;;;10.30;99.90;;;;;;4998811;28;20038;-86
2023/09/02 02:23:29;;;;;;;6.93;5.43;;;10.30;99.90;;;;;;5000714;28;20029;-87
2023/09/02 02:26:02;;;;;;;7.85;7.05;;;10.30;99.90;;;;;;4993992;28;20105;-87
2023/09/02 02:28:28;;;;;;;11.27;6.95;;;10.30;99.90;;;;;;5005632;28;20690;-87
2023/09/02 02:30:54;;;;;;;8.32;6.75;;;10.30;99.90;;;;;;5008681;28;20044;-87
2023/09/02 02:33:19;;;;;;;11.07;7.68;;;10.30;99.90;;;;;;4998263;28;20433;-87
2023/09/02 02:35:45;;;;;;;8.65;6.85;;;10.30;99.90;;;;;;4990275;28;20477;-87
2023/09/02 02:38:10;;;;;;;8.82;5.90;;;10.30;99.90;;;;;;4993801;28;20034;-87
2023/09/02 02:40:36;;;;;;;8.68;5.68;;;10.30;99.90;;;;;;5005953;28;20122;-87
2023/09/02 02:43:02;;;;;;;7.13;5.57;;;10.30;99.90;;;;;;4990436;28;20022;-87
2023/09/02 02:45:28;;;;;;;6.45;5.50;;;10.30;99.90;;;;;;4989977;28;20026;-87
2023/09/02 02:47:54;;;;;;;6.40;4.55;;;10.20;99.90;;;;;;4992724;28;20027;-87
2023/09/02 02:50:20;;;;;;;7.43;5.50;;;10.20;99.90;;;;;;4983837;28;20029;-87
2023/09/02 02:52:45;;;;;;;9.27;6.40;;;10.20;99.90;;;;;;5000611;28;20405;-87
2023/09/02 02:55:12;;;;;;;9.57;7.15;;;10.10;99.90;;;;;;4985065;28;20109;-87
2023/09/02 02:57:38;;;;;;;7.75;6.40;;;10.10;99.90;;;;;;4994780;28;20018;-87
2023/09/02 03:00:06;;;;;;;7.45;6.45;;;10.00;99.90;;;;;;4990691;28;20098;-86
2023/09/02 03:02:32;;;;;;;8.68;6.15;;;10.00;99.90;;;;;;4998265;28;20030;-87
2023/09/02 03:04:58;;;;;;;7.72;5.95;;;10.00;99.90;;;;;;5003633;28;20026;-86
2023/09/02 03:07:24;;;;;;;6.63;6.00;;;10.00;99.90;;;;;;5011419;28;20432;-87
2023/09/02 03:09:49;;;;;;;7.63;5.43;;;10.00;99.90;;;;;;4989979;28;20527;-87
2023/09/02 03:12:15;;;;;;;7.80;5.95;;;10.00;99.90;;;;;;5004565;28;20022;-87
2023/09/02 03:14:42;;;;;;;7.28;5.85;;;10.00;99.90;;;;;;4991416;28;20113;-87
2023/09/02 03:17:07;;;;;;;7.78;5.85;;;10.00;99.90;;;;;;4991660;28;20019;-87
2023/09/02 03:19:33;;;;;;;8.55;5.93;;;10.00;99.90;;;;;;5009001;28;20072;-87
2023/09/02 03:21:58;;;;;;;10.25;6.25;;;9.90;99.90;;;;;;5005331;28;20041;-87
2023/09/02 03:24:27;;;;;;;7.38;5.78;;;10.00;99.90;;;;;;4994332;28;20066;-87
2023/09/02 03:26:52;;;;;;;10.05;6.68;;;9.90;99.90;;;;;;5000444;28;20018;-86
2023/09/02 03:29:18;;;;;;;8.95;6.10;;;9.90;99.90;;;;;;5003211;28;20084;-87
2023/09/02 03:31:44;;;;;;;7.75;5.22;;;9.90;99.90;;;;;;5004948;28;20073;-87
2023/09/02 03:34:09;;;;;;;7.75;5.63;;;9.90;99.90;;;;;;5006000;28;20377;-87
2023/09/02 03:36:35;;;;;;;8.32;6.10;;;9.90;99.90;;;;;;4994916;28;20022;-87
2023/09/02 03:39:00;;;;;;;10.65;7.28;;;9.90;99.90;;;;;;5005164;28;20026;-86
2023/09/02 03:41:26;;;;;;;11.45;6.85;;;9.90;99.90;;;;;;5003351;28;20022;-86
2023/09/02 03:43:52;;;;;;;10.32;6.35;;;9.90;99.90;;;;;;5006675;28;20026;-87
2023/09/02 03:46:18;;;;;;;9.82;6.78;;;9.90;99.90;;;;;;4997914;28;20050;-87
2023/09/02 03:48:43;;;;;;;9.32;6.78;;;9.90;99.90;;;;;;5000163;28;20034;-87
2023/09/02 03:51:15;;;;;;;8.65;6.13;;;9.90;99.90;;;;;;4990115;28;20033;-87
2023/09/02 03:53:41;;;;;;;8.38;6.05;;;9.90;99.90;;;;;;4991313;28;20041;-87
2023/09/02 03:56:07;;;;;;;8.65;5.90;;;9.90;99.90;;;;;;4997576;28;20026;-87
2023/09/02 03:58:34;;;;;;;8.77;6.38;;;9.90;99.90;;;;;;5002769;28;20054;-87
2023/09/02 04:01:00;;;;;;;9.10;6.55;;;9.90;99.90;;;;;;5000792;28;20057;-87
2023/09/02 04:03:27;;;;;;;9.35;6.63;;;9.90;99.90;;;;;;5010447;28;20465;-87
2023/09/02 04:05:53;;;;;;;10.00;6.47;;;9.90;99.90;;;;;;5010523;28;20030;-87
2023/09/02 04:08:21;;;;;;;11.75;7.25;;;9.80;99.90;;;;;;4998615;28;20033;-87
2023/09/02 04:10:55;;;;;;;9.85;6.45;;;9.80;99.90;;;;;;5007975;28;20022;-87
2023/09/02 04:13:25;;;;;;;10.57;7.22;;;9.80;99.90;;;;;;4997400;28;20018;-87
2023/09/02 04:15:59;;;;;;;11.00;7.88;;;9.80;99.90;;;;;;4988870;28;20499;-88
2023/09/02 04:18:25;;;;;;;11.10;7.55;;;9.80;99.90;;;;;;5002599;28;20053;-87
2023/09/02 04:20:51;;;;;;;11.30;8.02;;;9.80;99.90;;;;;;4991675;28;20109;-87
2023/09/02 04:23:17;;;;;;;9.20;6.75;;;9.80;99.90;;;;;;4992712;28;20030;-87
2023/09/02 04:25:53;;;;;;;9.10;6.88;;;9.80;99.90;;;;;;5009921;28;20022;-86
2023/09/02 04:28:19;;;;;;;;;;;9.80;99.90;;;;;;5007201;28;20018;-86
2023/09/02 04:30:45;;;;;;;9.40;6.65;;;9.70;99.90;;;;;;4999118;28;19910;-87
2023/09/02 04:33:12;;;;;;;10.82;7.82;;;9.80;99.90;;;;;;4997048;28;20033;-86
2023/09/02 04:35:42;;;;;;;10.80;7.82;;;9.70;99.90;;;;;;4987908;28;20072;-87
2023/09/02 04:38:08;;;;;;;11.43;7.75;;;9.70;99.90;;;;;;4991982;28;20018;-86
2023/09/02 04:40:38;;;;;;;11.75;7.95;;;9.70;99.90;;;;;;5000467;28;20022;-87
2023/09/02 04:43:08;;;;;;;11.20;7.38;;;9.80;99.90;;;;;;5005899;28;20087;-87
2023/09/02 04:45:35;;;;;;;10.80;8.50;;;9.80;99.90;;;;;;5001526;28;20034;-86
2023/09/02 04:48:05;;;;;;;12.75;9.25;;;9.70;99.90;;;;;;4998228;28;20048;-86
2023/09/02 04:50:31;;;;;;;14.55;8.45;;;9.70;99.90;;;;;;4986563;28;20081;-87
2023/09/02 04:52:58;;;;;;;12.45;8.65;;;9.70;99.90;;;;;;4998715;28;20210;-86
2023/09/02 04:55:25;;;;;;;12.02;8.18;;;9.70;99.90;;;;;;5004840;28;20026;-86
2023/09/02 04:57:57;;;;;;;11.25;7.70;;;9.70;99.90;;;;;;4991204;28;20027;-87
2023/09/02 05:00:24;;;;;;;12.70;8.90;;;9.70;99.90;;;;;;4987080;28;20046;-86
2023/09/02 05:02:50;;;;;;;12.32;8.63;;;9.80;99.90;;;;;;4997969;28;20029;-86
2023/09/02 05:05:18;;;;;;;12.05;7.97;;;9.80;99.90;;;;;;4990178;28;20109;-86
2023/09/02 05:07:44;;;;;;;11.45;7.38;;;9.80;99.90;;;;;;4999357;28;21305;-86
2023/09/02 05:10:11;;;;;;;12.30;6.85;;;9.80;99.90;;;;;;4995377;28;20053;-87
2023/09/02 05:12:37;;;;;;;12.77;7.63;;;9.80;99.90;;;;;;5006483;28;20637;-87
2023/09/02 05:15:03;;;;;;;11.40;7.80;;;9.80;99.90;;;;;;4992855;28;20110;-86
2023/09/02 05:17:31;;;;;;;10.45;6.97;;;9.80;99.90;;;;;;5002485;28;20025;-86
2023/09/02 05:19:57;;;;;;;9.10;6.65;;;9.80;99.90;;;;;;5003849;28;20022;-86
2023/09/02 05:22:22;;;;;;;8.10;6.10;;;9.80;99.90;;;;;;5000705;28;20113;-87
2023/09/02 05:24:48;;;;;;;8.85;5.90;;;9.80;99.90;;;;;;4996174;28;20469;-86
2023/09/02 05:27:14;;;;;;;9.45;6.03;;;9.80;99.90;;;;;;4992026;28;20374;-86
2023/09/02 05:29:39;;;;;;;7.20;5.70;;;9.80;99.90;;;;;;5001403;28;20034;-85
2023/09/02 05:32:05;;;;;;;7.47;5.82;;;9.90;99.90;;;;;;4998942;28;20531;-86
2023/09/02 05:34:31;;;;;;;7.25;5.35;;;9.90;99.90;;;;;;5003891;28;20520;-86
2023/09/02 05:36:57;;;;;;;7.97;5.88;;;9.90;99.90;;;;;;4994695;28;20026;-86
2023/09/02 05:39:22;;;;;;;9.25;6.50;;;9.90;99.90;;;;;;4991735;28;20393;-86
2023/09/02 05:41:48;;;;;;;8.40;5.93;;;10.00;99.90;;;;;;4997718;28;20030;-86
2023/09/02 05:44:13;;;;;;;9.05;5.93;;;10.00;99.90;;;;;;4986512;28;20547;-86
2023/09/02 05:46:39;;;;;;;9.65;6.97;;;10.00;99.90;;;;;;4985954;28;20030;-86
2023/09/02 05:49:05;;;;;;;8.70;6.07;;;10.10;99.90;;;;;;4995976;28;20022;-87
2023/09/02 05:51:30;;;;;;;8.70;5.85;;;10.10;99.90;;;;;;4991820;28;20381;-87
2023/09/02 05:53:57;;;;;;;8.25;6.55;;;10.10;99.90;;;;;;4998086;28;20022;-86
2023/09/02 05:56:23;;;;;;;9.02;6.25;;;10.20;99.90;;;;;;4992235;28;20555;-86
2023/09/02 05:58:48;;;;;;;8.55;5.97;;;10.20;99.90;;;;;;4993533;28;20105;-86
2023/09/02 06:01:14;;;;;;;9.35;7.03;;;10.20;99.90;;;;;;4996778;28;20041;-86
2023/09/02 06:03:41;;;;;;;12.63;7.80;;;10.30;99.90;;;;;;4997877;28;20034;-86
2023/09/02 06:06:13;;;;;;;12.52;8.73;;;10.40;99.90;;;;;;4992219;28;20026;-86
2023/09/02 06:08:40;;;;;;;12.77;7.97;;;10.50;99.90;;;;;;5000560;28;20038;-87
2023/09/02 06:11:06;;;;;;;10.05;7.15;;;10.50;99.90;;;;;;5002401;28;20026;-87
2023/09/02 06:13:32;;;;;;;13.80;8.02;;;10.60;99.90;;;;;;5007942;28;20401;-86
2023/09/02 06:15:59;;;;;;;12.30;8.77;;;10.70;99.90;;;;;;5000585;28;20021;-86
2023/09/02 06:18:25;;;;;;;11.68;8.05;;;10.80;99.90;;;;;;5009794;28;20037;-87
2023/09/02 06:20:51;;;;;;;13.35;8.57;;;10.90;99.90;;;;;;4998058;28;20023;-87
2023/09/02 06:23:16;;;;;;;12.02;8.50;;;11.00;99.90;;;;;;4992742;28;20121;-87
2023/09/02 06:25:42;;;;;;;12.20;8.32;;;11.10;99.90;;;;;;5006256;28;20485;-87
2023/09/02 06:28:08;;;;;;;15.05;8.85;;;11.20;99.90;;;;;;5003441;28;20385;-86
2023/09/02 06:30:36;;;;;;;11.55;8.50;;;11.20;99.90;;;;;;4998692;28;20113;-86
2023/09/02 06:33:03;;;;;;;10.82;8.57;;;11.40;99.90;;;;;;5002931;28;20053;-87
2023/09/02 06:35:31;;;;;;;14.20;8.95;;;11.50;99.90;;;;;;4994076;28;20066;-88
2023/09/02 06:37:57;;;;;;;14.95;8.80;;;11.70;99.90;;;;;;5004246;28;20029;-87
2023/09/02 06:40:23;;;;;;;14.07;8.57;;;11.80;99.90;;;;;;4995629;28;20026;-88
2023/09/02 06:42:48;;;;;;;12.80;8.30;;;11.80;99.90;;;;;;4999973;28;20022;-88
2023/09/02 06:45:14;;;;;;;13.73;9.73;;;12.00;99.90;;;;;;5003688;28;20036;-88
2023/09/02 06:47:40;;;;;;;13.07;8.57;;;12.10;99.90;;;;;;5015096;28;20519;-89
2023/09/02 06:50:06;;;;;;;11.90;8.70;;;12.20;99.90;;;;;;5004420;28;20087;-88
2023/09/02 06:52:32;;;;;;;10.90;7.88;;;12.30;99.90;;;;;;4981410;28;20056;-89
2023/09/02 06:54:57;;;;;;;13.93;8.75;;;12.40;99.90;;;;;;5014169;28;20489;-88
2023/09/02 06:57:23;;;;;;;10.50;7.03;;;12.50;99.90;;;;;;4999574;28;20037;-88
2023/09/02 06:59:48;;;;;;;11.27;7.55;;;12.70;99.90;;;;;;5014811;28;20113;-88
2023/09/02 07:02:17;;;;;;;10.55;7.47;;;12.80;99.90;;;;;;4995398;28;20045;-90
2023/09/02 07:04:42;;;;;;;12.80;7.70;;;13.00;99.90;;;;;;4994825;28;20117;-89
2023/09/02 07:07:08;;;;;;;9.48;7.00;;;13.20;99.90;;;;;;4994288;28;20058;-90
2023/09/02 07:09:35;;;;;;;9.95;6.78;;;13.30;99.90;;;;;;4977373;28;20054;-88
2023/09/02 07:12:00;;;;;;;10.82;7.65;;;13.50;99.90;;;;;;4989510;28;20397;-91
2023/09/02 07:14:27;;;;;;;11.60;6.97;;;13.70;99.90;;;;;;5021318;28;20010;-91
2023/09/02 07:16:52;;;;;;;7.55;6.20;;;13.80;99.90;;;;;;5014518;28;20033;-89
2023/09/02 07:19:21;;;;;;;12.43;7.18;;;14.00;99.90;;;;;;5017547;28;20022;-89
2023/09/02 07:21:47;;;;;;;10.00;6.88;;;14.20;99.90;;;;;;4998931;28;20034;-90
2023/09/02 07:24:13;;;;;;;9.73;6.55;;;14.40;99.90;;;;;;4995984;28;20030;-90
2023/09/02 07:26:39;;;;;;;8.55;5.95;;;14.60;99.90;;;;;;4991818;28;20027;-91
2023/09/02 07:29:06;;;;;;;7.35;6.18;;;14.80;99.90;;;;;;4975824;28;20066;-91
2023/09/02 07:31:31;;;;;;;7.15;5.95;;;15.00;99.90;;;;;;4973042;28;20490;-89
2023/09/02 07:33:57;;;;;;;9.68;6.68;;;15.20;99.90;;;;;;4999614;28;20033;-86
2023/09/02 07:36:23;;;;;;;8.68;5.93;;;15.40;99.90;;;;;;4998961;28;20019;-89
2023/09/02 07:38:48;;;;;;;6.70;4.55;;;15.50;99.90;;;;;;4995147;28;20023;-87
2023/09/02 07:41:14;;;;;;;10.38;5.22;;;15.70;99.90;;;;;;4993732;28;20397;-87
2023/09/02 07:43:39;;;;;;;5.80;4.72;;;15.90;99.90;;;;;;4993256;28;20493;-86
2023/09/02 07:46:05;;;;;;;5.35;4.40;;;16.10;99.90;;;;;;4996653;28;20465;-87
2023/09/02 07:48:31;;;;;;;5.15;4.00;;;16.30;99.90;;;;;;4992880;28;20544;-87
2023/09/02 07:50:56;;;;;;;4.53;3.90;;;16.50;99.90;;;;;;4993167;28;20430;-88
2023/09/02 07:53:22;;;;;;;4.38;3.83;;;16.70;99.90;;;;;;4993150;28;20023;-86
2023/09/02 07:55:48;;;;;;;4.07;3.03;;;16.90;99.90;;;;;;5003746;28;20077;-85
2023/09/02 07:58:13;;;;;;;4.25;3.55;;;17.10;99.90;;;;;;5006743;28;20497;-85
2023/09/02 08:00:39;;;;;;;6.00;3.30;;;17.20;99.90;;;;;;4997027;28;20417;-85
2023/09/02 08:03:05;;;;;;;4.53;3.45;;;17.30;99.90;;;;;;4994386;28;20053;-87
2023/09/02 08:05:31;;;;;;;5.22;4.47;;;17.50;99.90;;;;;;5001320;28;20027;-86
2023/09/02 08:07:57;;;;;;;3.97;3.17;;;17.60;99.90;;;;;;4996530;28;20025;-86
2023/09/02 08:10:25;;;;;;;4.35;2.80;;;17.70;99.90;;;;;;5012932;28;20018;-87
2023/09/02 08:12:50;;;;;;;4.40;3.70;;;17.80;99.90;;;;;;5005560;28;20105;-87
2023/09/02 08:15:16;;;;;;;4.28;3.88;;;17.90;99.90;;;;;;4993588;28;20504;-86
2023/09/02 08:17:42;;;;;;;2.40;2.13;;;18.00;99.90;;;;;;4993893;28;20023;-87
2023/09/02 08:20:09;;;;;;;3.00;2.72;;;18.10;99.90;;;;;;4980271;28;20023;-85
2023/09/02 08:22:39;;;;;;;2.40;2.20;;;18.10;99.90;;;;;;5009852;28;20030;-84
2023/09/02 08:25:06;;;;;;;3.80;2.92;;;18.20;99.90;;;;;;4991710;28;20458;-84
2023/09/02 08:27:32;;;;;;;5.03;2.83;;;18.30;99.90;;;;;;5007083;28;20033;-85
2023/09/02 08:29:57;;;;;;;4.82;2.85;;;18.10;99.90;;;;;;4995865;28;20033;-86
2023/09/02 08:32:23;;;;;;;3.78;2.45;;;18.10;99.90;;;;;;5003806;28;20022;-86
2023/09/02 08:34:49;;;;;;;4.95;3.10;;;18.10;99.90;;;;;;4983505;28;20375;-86
2023/09/02 08:37:14;;;;;;;2.75;2.55;;;18.20;99.90;;;;;;4993435;28;20041;-86
2023/09/02 08:39:40;;;;;;;4.65;3.05;;;18.30;99.90;;;;;;5009262;28;20018;-87
2023/09/02 08:42:06;;;;;;;2.78;2.58;;;18.40;99.90;;;;;;5002666;28;20087;-86
2023/09/02 08:44:35;;;;;;;3.22;2.92;;;18.40;99.90;;;;;;4998768;28;20026;-87
2023/09/02 08:47:02;;;;;;;4.32;3.10;;;18.60;99.90;;;;;;5000865;28;20030;-86
2023/09/02 08:49:29;;;;;;;3.97;2.85;;;18.60;99.90;;;;;;4993793;28;20030;-86
2023/09/02 08:51:55;;;;;;;3.17;2.40;;;18.70;99.90;;;;;;5004246;28;20022;-86
2023/09/02 08:54:21;;;;;;;3.83;2.33;;;18.70;99.90;;;;;;5003172;28;20082;-85
2023/09/02 08:56:49;;;;;;;2.50;2.30;;;18.80;99.90;;;;;;4993356;28;20628;-86
2023/09/02 08:59:15;;;;;;;3.83;2.58;;;18.90;99.90;;;;;;5005864;28;20121;-84
2023/09/02 09:01:47;;;;;;;1.90;1.50;;;18.90;99.90;;;;;;4991901;28;20066;-86
2023/09/02 09:04:14;;;;;;;1.48;1.33;;;18.90;99.90;;;;;;4995354;28;20030;-85
2023/09/02 09:06:40;;;;;;;1.55;1.40;;;18.80;99.90;;;;;;4995384;28;20060;-80
2023/09/02 09:09:11;;;;;;;4.13;1.50;;;18.90;99.90;;;;;;5005259;28;20401;-82
2023/09/02 09:11:40;;;;;;;1.42;1.33;;;19.00;99.90;;;;;;4995217;28;20034;-82
2023/09/02 09:14:10;;;;;;;1.63;1.52;;;19.00;99.90;;;;;;4991207;28;20455;-79
2023/09/02 09:16:37;;;;;;;1.60;1.50;;;18.90;99.90;;;;;;4983318;28;20292;-83
2023/09/02 09:19:03;;;;;;;1.55;1.20;;;18.80;99.90;;;;;;4996663;28;20089;-82
2023/09/02 09:21:28;;;;;;;1.85;1.70;;;18.70;99.90;;;;;;5005638;28;20100;-81
2023/09/02 09:23:55;;;;;;;1.65;1.20;;;18.80;99.90;;;;;;5007821;28;20049;-82
2023/09/02 09:26:21;;;;;;;3.10;1.13;;;18.90;99.90;;;;;;4995196;28;20026;-85
2023/09/02 09:28:58;;;;;;;1.40;1.30;;;19.00;99.90;;;;;;4996342;28;20045;-86
2023/09/02 09:31:26;;;;;;;1.92;1.48;;;19.10;99.90;;;;;;5006536;28;20049;-86
2023/09/02 09:33:55;;;;;;;2.05;1.42;;;19.10;99.90;;;;;;4979925;28;20066;-85
2023/09/02 09:36:21;;;;;;;1.38;1.02;;;19.20;99.90;;;;;;5007356;28;20026;-86
2023/09/02 09:38:49;;;;;;;1.58;1.10;;;19.10;99.90;;;;;;5009402;28;20046;-85
2023/09/02 09:41:14;;;;;;;1.42;1.13;;;19.10;99.90;;;;;;5010554;28;20025;-87
2023/09/02 09:43:40;;;;;;;1.40;1.30;;;19.10;99.90;;;;;;5008678;28;20117;-86
2023/09/02 09:46:06;;;;;;;2.50;1.10;;;19.20;99.90;;;;;;4995667;28;20468;-85
2023/09/02 09:48:31;;;;;;;2.05;0.90;;;19.30;99.90;;;;;;5008242;28;20121;-85
2023/09/02 09:50:59;;;;;;;1.23;1.13;;;19.40;99.90;;;;;;4991898;28;20045;-84
2023/09/02 09:53:32;;;;;;;0.82;0.68;;;19.50;99.90;;;;;;5002612;28;20030;-85
2023/09/02 09:56:02;;;;;;;1.30;1.10;;;19.50;99.90;;;;;;5000084;28;20129;-85
2023/09/02 09:58:31;;;;;;;2.35;1.00;;;19.40;99.90;;;;;;5004156;28;20018;-84
2023/09/02 10:00:56;;;;;;;1.00;0.95;;;19.50;99.90;;;;;;4993542;28;20515;-84
2023/09/02 10:03:30;;;;;;;0.98;0.90;;;19.40;99.90;;;;;;5004044;28;20213;-84
2023/09/02 10:06:00;;;;;;;2.50;0.93;;;19.30;99.90;;;;;;4997567;28;20485;-85
2023/09/02 10:08:25;;;;;;;1.20;1.10;;;19.20;99.90;;;;;;5003657;28;20375;-85
2023/09/02 10:10:51;;;;;;;1.08;0.93;;;19.10;99.90;;;;;;4998479;28;20029;-85
2023/09/02 10:13:18;;;;;;;3.15;1.20;;;19.10;99.90;;;;;;4996072;28;20030;-86
2023/09/02 10:15:46;;;;;;;3.10;1.20;;;19.20;99.90;;;;;;4985348;28;20030;-86
2023/09/02 10:18:12;;;;;;;1.65;0.93;;;19.30;99.90;;;;;;4996352;28;20018;-85
2023/09/02 10:20:39;;;;;;;1.80;1.42;;;19.30;99.90;;;;;;4996879;28;20110;-84
2023/09/02 10:23:06;;;;;;;1.38;1.15;;;19.30;99.90;;;;;;5006890;28;20023;-82
2023/09/02 10:25:41;;;;;;;1.10;0.93;;;19.30;99.90;;;;;;4996042;28;20062;-84
2023/09/02 10:28:11;;;;;;;0.80;0.80;;;19.40;99.90;;;;;;5000181;28;20098;-85
2023/09/02 10:30:47;;;;;;;1.67;1.00;;;19.40;99.90;;;;;;5001712;28;20050;-85
2023/09/02 10:33:39;;;;;;;1.98;0.93;;;19.50;99.90;;;;;;5001948;28;20300;-85
2023/09/02 10:36:06;;;;;;;1.65;1.10;;;19.50;99.90;;;;;;4982189;28;20022;-85
2023/09/02 10:38:41;;;;;;;2.47;1.33;;;19.60;99.90;;;;;;4996788;28;20492;-87
2023/09/02 10:41:13;;;;;;;2.38;1.30;;;19.70;99.90;;;;;;5001939;28;20036;-85
2023/09/02 10:43:40;;;;;;;1.27;0.82;;;19.70;99.90;;;;;;5007113;28;20085;-82
2023/09/02 10:46:08;;;;;;;1.40;1.10;;;19.80;99.90;;;;;;4997203;28;20195;-86
2023/09/02 10:48:40;;;;;;;1.00;0.80;;;19.80;99.90;;;;;;4995567;28;20121;-84
2023/09/02 10:51:07;;;;;;;1.10;1.00;;;19.80;99.90;;;;;;5013155;28;20018;-83
2023/09/02 10:54:02;;;;;;;3.00;1.80;;;20.00;99.90;;;;;;5003341;28;20060;-83
2023/09/02 10:56:34;;;;;;;2.30;1.08;;;20.10;99.90;;;;;;5006999;28;20373;-84
2023/09/02 10:59:04;;;;;;;1.10;0.95;;;20.00;99.90;;;;;;5008708;28;20022;-83
2023/09/02 11:01:44;;;;;;;1.20;1.00;;;20.00;99.90;;;;;;4994902;28;20065;-86
2023/09/02 11:04:10;;;;;;;0.95;0.85;;;19.90;99.90;;;;;;5005983;28;20037;-86
2023/09/02 11:06:36;;;;;;;1.55;1.15;;;19.90;99.90;;;;;;4996010;28;20026;-84
2023/09/02 11:09:01;;;;;;;1.25;1.00;;;19.90;99.90;;;;;;4995571;28;20025;-84
2023/09/02 11:12:06;;;;;;;1.23;1.10;;;19.90;99.90;;;;;;5005677;28;20033;-83
2023/09/02 11:14:32;;;;;;;1.00;0.90;;;20.00;99.90;;;;;;5016247;28;20033;-84
2023/09/02 11:17:26;;;;;;;1.30;0.98;;;20.10;99.90;;;;;;5006583;28;20018;-84
2023/09/02 11:19:56;;;;;;;2.28;1.42;;;20.20;99.90;;;;;;4995897;28;20118;-84
2023/09/02 11:22:54;;;;;;;1.52;0.95;;;20.20;99.90;;;;;;5001375;28;20034;-84
2023/09/02 11:25:42;;;;;;;1.10;0.85;;;20.40;99.90;;;;;;4991013;28;20430;-84
2023/09/02 11:28:24;;;;;;;2.67;1.20;;;20.50;99.90;;;;;;5000794;28;20084;-84
2023/09/02 11:31:12;;;;;;;1.17;1.08;;;20.60;99.90;;;;;;4996242;28;20073;-83
2023/09/02 11:33:39;;;;;;;0.85;0.85;;;20.60;99.90;;;;;;5001399;28;20042;-84
2023/09/02 11:36:16;;;;;;;1.15;0.77;;;20.70;99.90;;;;;;5007646;28;20053;-82
2023/09/02 11:38:41;;;;;;;2.35;1.00;;;20.80;99.90;;;;;;5002231;28;20034;-84
2023/09/02 11:41:10;;;;;;;1.48;1.10;;;20.90;99.90;;;;;;5008208;28;20112;-83
2023/09/02 11:43:36;;;;;;;1.40;1.30;;;20.90;99.90;;;;;;5000400;28;20394;-83
2023/09/02 11:46:03;;;;;;;2.13;1.20;;;20.90;99.90;;;;;;4993279;28;20070;-82
2023/09/02 11:48:30;;;;;;;2.53;0.90;;;20.90;99.90;;;;;;5003286;28;20034;-84
2023/09/02 11:50:59;;;;;;;1.50;1.02;;;20.90;99.90;;;;;;4999878;28;20025;-84
2023/09/02 11:53:29;;;;;;;0.70;0.70;;;20.90;99.90;;;;;;5013198;28;20172;-84
2023/09/02 11:55:56;;;;;;;1.23;1.13;;;20.90;99.90;;;;;;5009441;28;20030;-83
2023/09/02 11:58:22;;;;;;;1.40;1.00;;;20.90;99.90;;;;;;5004144;28;20014;-83
2023/09/02 12:00:47;;;;;;;1.85;1.20;;;20.90;99.90;;;;;;4992909;28;20407;-83
2023/09/02 12:03:19;;;;;;;2.35;1.25;;;21.00;99.90;;;;;;5013319;28;20432;-84
2023/09/02 12:05:52;;;;;;;1.48;1.05;;;21.10;99.90;;;;;;5005821;28;20030;-83
2023/09/02 12:08:18;;;;;;;0.80;0.80;;;21.10;99.90;;;;;;5001230;28;20022;-83
2023/09/02 12:10:48;;;;;;;1.08;0.80;;;21.10;99.90;;;;;;5009733;28;20052;-82
2023/09/02 12:13:17;;;;;;;1.35;0.90;;;21.10;99.90;;;;;;4994489;28;20659;-82
2023/09/02 12:15:48;;;;;;;1.17;1.05;;;21.20;99.90;;;;;;5000424;28;20053;-83
2023/09/02 12:18:15;;;;;;;1.30;1.05;;;21.20;99.90;;;;;;4999567;28;20025;-83
2023/09/02 12:20:40;;;;;;;1.60;1.00;;;21.30;99.90;;;;;;5005507;28;20108;-84
2023/09/02 12:23:06;;;;;;;0.88;0.77;;;21.30;99.90;;;;;;5010600;28;20050;-84
2023/09/02 12:25:33;;;;;;;1.85;1.08;;;21.20;99.90;;;;;;4994767;28;20070;-84
2023/09/02 12:28:13;;;;;;;2.90;1.15;;;21.20;99.90;;;;;;4991917;28;20039;-84
2023/09/02 12:30:39;;;;;;;1.75;0.88;;;21.30;99.90;;;;;;4993716;28;20066;-82
2023/09/02 12:33:05;;;;;;;2.33;0.93;;;21.30;99.90;;;;;;4990366;28;20031;-83
2023/09/02 12:35:31;;;;;;;1.40;0.95;;;21.30;99.90;;;;;;4990158;28;20101;-84
2023/09/02 12:38:02;;;;;;;0.80;0.80;;;21.40;99.90;;;;;;4994068;28;20181;-83
2023/09/02 12:40:27;;;;;;;1.48;0.90;;;21.40;99.90;;;;;;4995351;28;20497;-82
2023/09/02 12:42:54;;;;;;;1.02;0.70;;;21.50;99.90;;;;;;5008079;28;20105;-83
2023/09/02 12:45:27;;;;;;;1.05;0.90;;;21.60;99.90;;;;;;5011049;28;20022;-85
2023/09/02 12:47:54;;;;;;;1.15;0.90;;;21.70;99.90;;;;;;4985671;28;20706;-84
2023/09/02 12:50:22;;;;;;;1.77;0.90;;;21.60;99.90;;;;;;5006090;28;20053;-84